sensor_id;sensor_type;location;lat;lon;timestamp;temperature;humidity
21568;DHT22;10944;42.590;12.630;2022-12-29T00:02:10;9.80;99.90
21568;DHT22;10944;42.590;12.630;2022-12-29T00:04:36;9.80;99.90
21568;DHT22;10944;42.590;12.630;2022-12-29T00:07:02;9.90;99.90
21568;DHT22;10944;42.590;12.630;2022-12-29T00:09:30;9.90;99.90
21568;DHT22;10944;42.590;12.630;2022-12-29T00:11:57;10.00;99.90
21568;DHT22;10944;42.590;12.630;2022-12-29T00:14:22;10.00;99.90
21568;DHT22;10944;42.590;12.630;2022-12-29T00:17:07;10.00;99.90
21568;DHT22;10944;42.590;12.630;2022-12-29T00:19:33;10.00;99.90
21568;DHT22;10944;42.590;12.630;2022-12-29T00:22:17;10.10;99.90
21568;DHT22;10944;42.590;12.630;2022-12-29T00:25:01;10.00;99.90
21568;DHT22;10944;42.590;12.630;2022-12-29T00:27:45;10.00;99.90
21568;DHT22;10944;42.590;12.630;2022-12-29T00:30:29;10.00;99.90
21568;DHT22;10944;42.590;12.630;2022-12-29T00:33:19;9.80;99.90
21568;DHT22;10944;42.590;12.630;2022-12-29T00:36:25;9.80;99.90
21568;DHT22;10944;42.590;12.630;2022-12-29T00:39:24;9.80;99.90
21568;DHT22;10944;42.590;12.630;2022-12-29T00:42:09;9.70;99.90
21568;DHT22;10944;42.590;12.630;2022-12-29T00:44:53;9.70;99.90
21568;DHT22;10944;42.590;12.630;2022-12-29T00:47:19;9.70;99.90
21568;DHT22;10944;42.590;12.630;2022-12-29T00:49:44;9.70;99.90
21568;DHT22;10944;42.590;12.630;2022-12-29T00:52:12;9.70;99.90
21568;DHT22;10944;42.590;12.630;2022-12-29T00:54:39;9.80;99.90
21568;DHT22;10944;42.590;12.630;2022-12-29T00:57:07;9.90;99.90
21568;DHT22;10944;42.590;12.630;2022-12-29T00:59:38;9.80;99.90
21568;DHT22;10944;42.590;12.630;2022-12-29T01:02:04;9.90;99.90
21568;DHT22;10944;42.590;12.630;2022-12-29T01:04:30;9.80;99.90
21568;DHT22;10944;42.590;12.630;2022-12-29T01:06:55;9.80;99.90
21568;DHT22;10944;42.590;12.630;2022-12-29T01:09:21;9.70;99.90
21568;DHT22;10944;42.590;12.630;2022-12-29T01:12:06;9.70;99.90
21568;DHT22;10944;42.590;12.630;2022-12-29T01:14:32;9.70;99.90
21568;DHT22;10944;42.590;12.630;2022-12-29T01:16:58;9.80;99.90
21568;DHT22;10944;42.590;12.630;2022-12-29T01:19:24;9.80;99.90
21568;DHT22;10944;42.590;12.630;2022-12-29T01:21:50;9.80;99.90
21568;DHT22;10944;42.590;12.630;2022-12-29T01:24:17;9.90;99.90
21568;DHT22;10944;42.590;12.630;2022-12-29T01:26:43;10.00;99.90
21568;DHT22;10944;42.590;12.630;2022-12-29T01:29:09;10.10;99.90
21568;DHT22;10944;42.590;12.630;2022-12-29T01:31:35;10.10;99.90
21568;DHT22;10944;42.590;12.630;2022-12-29T01:34:01;10.20;99.90
21568;DHT22;10944;42.590;12.630;2022-12-29T01:36:27;10.30;99.90
21568;DHT22;10944;42.590;12.630;2022-12-29T01:38:53;10.30;99.90
21568;DHT22;10944;42.590;12.630;2022-12-29T01:41:18;10.30;99.90
21568;DHT22;10944;42.590;12.630;2022-12-29T01:43:49;10.20;99.90
21568;DHT22;10944;42.590;12.630;2022-12-29T01:46:34;10.30;99.90
21568;DHT22;10944;42.590;12.630;2022-12-29T01:51:45;10.40;99.90
21568;DHT22;10944;42.590;12.630;2022-12-29T01:54:27;10.40;99.90
21568;DHT22;10944;42.590;12.630;2022-12-29T01:56:55;10.40;99.90
21568;DHT22;10944;42.590;12.630;2022-12-29T01:59:27;10.40;99.90
21568;DHT22;10944;42.590;12.630;2022-12-29T02:01:54;10.40;99.90
21568;DHT22;10944;42.590;12.630;2022-12-29T02:04:23;10.30;99.90
21568;DHT22;10944;42.590;12.630;2022-12-29T02:06:55;10.40;99.90
21568;DHT22;10944;42.590;12.630;2022-12-29T02:09:23;10.40;99.90
21568;DHT22;10944;42.590;12.630;2022-12-29T02:11:49;10.40;99.90
21568;DHT22;10944;42.590;12.630;2022-12-29T02:14:15;10.50;99.90
21568;DHT22;10944;42.590;12.630;2022-12-29T02:22:27;10.60;99.90
21568;DHT22;10944;42.590;12.630;2022-12-29T02:31:40;10.60;99.90
21568;DHT22;10944;42.590;12.630;2022-12-29T02:34:35;10.70;99.90
21568;DHT22;10944;42.590;12.630;2022-12-29T02:37:22;10.70;99.90
21568;DHT22;10944;42.590;12.630;2022-12-29T02:42:51;10.80;99.90
21568;DHT22;10944;42.590;12.630;2022-12-29T02:45:41;10.80;99.90
21568;DHT22;10944;42.590;12.630;2022-12-29T02:48:10;10.80;99.90
21568;DHT22;10944;42.590;12.630;2022-12-29T02:53:28;10.80;99.90
21568;DHT22;10944;42.590;12.630;2022-12-29T02:56:14;10.80;99.90
21568;DHT22;10944;42.590;12.630;2022-12-29T02:58:39;10.70;99.90
21568;DHT22;10944;42.590;12.630;2022-12-29T03:17:50;10.30;99.90
21568;DHT22;10944;42.590;12.630;2022-12-29T03:20:26;10.30;99.90
21568;DHT22;10944;42.590;12.630;2022-12-29T03:22:59;10.40;99.90
21568;DHT22;10944;42.590;12.630;2022-12-29T03:25:53;10.40;99.90
21568;DHT22;10944;42.590;12.630;2022-12-29T03:28:24;10.50;99.90
21568;DHT22;10944;42.590;12.630;2022-12-29T03:30:51;10.50;99.90
21568;DHT22;10944;42.590;12.630;2022-12-29T03:33:23;10.50;99.90
21568;DHT22;10944;42.590;12.630;2022-12-29T03:35:53;10.60;99.90
21568;DHT22;10944;42.590;12.630;2022-12-29T03:38:35;10.60;99.90
21568;DHT22;10944;42.590;12.630;2022-12-29T03:41:07;10.60;99.90
21568;DHT22;10944;42.590;12.630;2022-12-29T03:43:34;10.60;99.90
21568;DHT22;10944;42.590;12.630;2022-12-29T03:46:00;10.70;99.90
21568;DHT22;10944;42.590;12.630;2022-12-29T03:48:26;10.80;99.90
21568;DHT22;10944;42.590;12.630;2022-12-29T03:50:51;10.80;99.90
21568;DHT22;10944;42.590;12.630;2022-12-29T03:53:17;10.80;99.90
21568;DHT22;10944;42.590;12.630;2022-12-29T03:55:43;10.80;99.90
21568;DHT22;10944;42.590;12.630;2022-12-29T03:58:08;10.80;99.90
21568;DHT22;10944;42.590;12.630;2022-12-29T04:00:34;10.80;99.90
21568;DHT22;10944;42.590;12.630;2022-12-29T04:03:00;10.80;99.90
21568;DHT22;10944;42.590;12.630;2022-12-29T04:05:25;10.70;99.90
21568;DHT22;10944;42.590;12.630;2022-12-29T04:07:51;10.70;99.90
21568;DHT22;10944;42.590;12.630;2022-12-29T04:10:17;10.70;99.90
21568;DHT22;10944;42.590;12.630;2022-12-29T04:12:42;10.70;99.90
21568;DHT22;10944;42.590;12.630;2022-12-29T04:15:09;10.70;99.90
21568;DHT22;10944;42.590;12.630;2022-12-29T04:17:35;10.70;99.90
21568;DHT22;10944;42.590;12.630;2022-12-29T04:20:00;10.70;99.90
21568;DHT22;10944;42.590;12.630;2022-12-29T04:22:44;10.60;99.90
21568;DHT22;10944;42.590;12.630;2022-12-29T04:25:10;10.60;99.90
21568;DHT22;10944;42.590;12.630;2022-12-29T04:27:36;10.70;99.90
21568;DHT22;10944;42.590;12.630;2022-12-29T04:30:02;10.80;99.90
21568;DHT22;10944;42.590;12.630;2022-12-29T04:32:28;10.80;99.90
21568;DHT22;10944;42.590;12.630;2022-12-29T04:34:53;10.90;99.90
21568;DHT22;10944;42.590;12.630;2022-12-29T04:37:19;10.90;99.90
21568;DHT22;10944;42.590;12.630;2022-12-29T04:39:45;10.90;99.90
21568;DHT22;10944;42.590;12.630;2022-12-29T04:42:10;10.90;99.90
21568;DHT22;10944;42.590;12.630;2022-12-29T04:44:36;11.00;99.90
21568;DHT22;10944;42.590;12.630;2022-12-29T04:47:02;11.00;99.90
21568;DHT22;10944;42.590;12.630;2022-12-29T04:49:27;11.00;99.90
21568;DHT22;10944;42.590;12.630;2022-12-29T04:51:53;11.00;99.90
21568;DHT22;10944;42.590;12.630;2022-12-29T04:54:19;10.90;99.90
21568;DHT22;10944;42.590;12.630;2022-12-29T04:56:44;10.90;99.90
21568;DHT22;10944;42.590;12.630;2022-12-29T04:59:10;10.90;99.90
21568;DHT22;10944;42.590;12.630;2022-12-29T05:01:36;10.80;99.90
21568;DHT22;10944;42.590;12.630;2022-12-29T05:04:01;10.80;99.90
21568;DHT22;10944;42.590;12.630;2022-12-29T05:06:27;10.80;99.90
21568;DHT22;10944;42.590;12.630;2022-12-29T05:08:53;10.70;99.90
21568;DHT22;10944;42.590;12.630;2022-12-29T05:11:18;10.80;99.90
21568;DHT22;10944;42.590;12.630;2022-12-29T05:13:47;10.80;99.90
21568;DHT22;10944;42.590;12.630;2022-12-29T05:16:13;10.80;99.90
21568;DHT22;10944;42.590;12.630;2022-12-29T05:18:38;10.80;99.90
21568;DHT22;10944;42.590;12.630;2022-12-29T05:21:04;10.90;99.90
21568;DHT22;10944;42.590;12.630;2022-12-29T05:23:30;10.90;99.90
21568;DHT22;10944;42.590;12.630;2022-12-29T05:25:56;11.00;99.90
21568;DHT22;10944;42.590;12.630;2022-12-29T05:28:21;10.90;99.90
21568;DHT22;10944;42.590;12.630;2022-12-29T05:30:51;10.90;99.90
21568;DHT22;10944;42.590;12.630;2022-12-29T05:33:18;10.80;99.90
21568;DHT22;10944;42.590;12.630;2022-12-29T05:35:44;10.80;99.90
21568;DHT22;10944;42.590;12.630;2022-12-29T05:38:09;10.90;99.90
21568;DHT22;10944;42.590;12.630;2022-12-29T05:40:35;10.90;99.90
21568;DHT22;10944;42.590;12.630;2022-12-29T05:43:01;11.00;99.90
21568;DHT22;10944;42.590;12.630;2022-12-29T05:45:27;10.90;99.90
21568;DHT22;10944;42.590;12.630;2022-12-29T05:47:53;10.90;99.90
21568;DHT22;10944;42.590;12.630;2022-12-29T05:50:18;10.90;99.90
21568;DHT22;10944;42.590;12.630;2022-12-29T05:52:44;10.90;99.90
21568;DHT22;10944;42.590;12.630;2022-12-29T05:55:10;10.90;99.90
21568;DHT22;10944;42.590;12.630;2022-12-29T05:57:36;10.90;99.90
21568;DHT22;10944;42.590;12.630;2022-12-29T06:00:04;10.80;99.90
21568;DHT22;10944;42.590;12.630;2022-12-29T06:02:30;10.70;99.90
21568;DHT22;10944;42.590;12.630;2022-12-29T06:04:55;10.60;99.90
21568;DHT22;10944;42.590;12.630;2022-12-29T06:07:21;10.60;99.90
21568;DHT22;10944;42.590;12.630;2022-12-29T06:09:47;10.60;99.90
21568;DHT22;10944;42.590;12.630;2022-12-29T06:12:12;10.70;99.90
21568;DHT22;10944;42.590;12.630;2022-12-29T06:14:38;10.60;99.90
21568;DHT22;10944;42.590;12.630;2022-12-29T06:17:04;10.60;99.90
21568;DHT22;10944;42.590;12.630;2022-12-29T06:19:30;10.70;99.90
21568;DHT22;10944;42.590;12.630;2022-12-29T06:21:55;10.60;99.90
21568;DHT22;10944;42.590;12.630;2022-12-29T06:24:21;10.60;99.90
21568;DHT22;10944;42.590;12.630;2022-12-29T06:26:47;10.60;99.90
21568;DHT22;10944;42.590;12.630;2022-12-29T06:29:13;10.60;99.90
21568;DHT22;10944;42.590;12.630;2022-12-29T06:31:42;10.60;99.90
21568;DHT22;10944;42.590;12.630;2022-12-29T06:34:11;10.60;99.90
21568;DHT22;10944;42.590;12.630;2022-12-29T06:36:37;10.60;99.90
21568;DHT22;10944;42.590;12.630;2022-12-29T06:39:03;10.60;99.90
21568;DHT22;10944;42.590;12.630;2022-12-29T06:41:28;10.70;99.90
21568;DHT22;10944;42.590;12.630;2022-12-29T06:43:54;10.80;99.90
21568;DHT22;10944;42.590;12.630;2022-12-29T06:46:20;10.70;99.90
21568;DHT22;10944;42.590;12.630;2022-12-29T06:48:45;10.60;99.90
21568;DHT22;10944;42.590;12.630;2022-12-29T06:51:11;10.30;99.90
21568;DHT22;10944;42.590;12.630;2022-12-29T06:53:37;10.40;99.90
21568;DHT22;10944;42.590;12.630;2022-12-29T06:56:03;10.40;99.90
21568;DHT22;10944;42.590;12.630;2022-12-29T06:58:28;10.20;99.90
21568;DHT22;10944;42.590;12.630;2022-12-29T07:00:54;10.00;99.90
21568;DHT22;10944;42.590;12.630;2022-12-29T07:03:20;9.90;99.90
21568;DHT22;10944;42.590;12.630;2022-12-29T07:05:45;9.90;99.90
21568;DHT22;10944;42.590;12.630;2022-12-29T07:08:11;9.90;99.90
21568;DHT22;10944;42.590;12.630;2022-12-29T07:10:37;9.90;99.90
21568;DHT22;10944;42.590;12.630;2022-12-29T07:13:03;10.00;99.90
21568;DHT22;10944;42.590;12.630;2022-12-29T07:15:28;10.00;99.90
21568;DHT22;10944;42.590;12.630;2022-12-29T07:17:54;10.20;99.90
21568;DHT22;10944;42.590;12.630;2022-12-29T07:20:20;10.30;99.90
21568;DHT22;10944;42.590;12.630;2022-12-29T07:22:45;10.20;99.90
21568;DHT22;10944;42.590;12.630;2022-12-29T07:25:12;10.20;99.90
21568;DHT22;10944;42.590;12.630;2022-12-29T07:27:38;10.20;99.90
21568;DHT22;10944;42.590;12.630;2022-12-29T07:30:04;10.20;99.90
21568;DHT22;10944;42.590;12.630;2022-12-29T07:32:33;10.30;99.90
21568;DHT22;10944;42.590;12.630;2022-12-29T07:34:59;10.30;99.90
21568;DHT22;10944;42.590;12.630;2022-12-29T07:37:24;10.50;99.90
21568;DHT22;10944;42.590;12.630;2022-12-29T07:39:50;10.50;99.90
21568;DHT22;10944;42.590;12.630;2022-12-29T07:42:16;10.60;99.90
21568;DHT22;10944;42.590;12.630;2022-12-29T07:44:42;10.50;99.90
21568;DHT22;10944;42.590;12.630;2022-12-29T07:47:07;10.50;99.90
21568;DHT22;10944;42.590;12.630;2022-12-29T07:49:33;10.50;99.90
21568;DHT22;10944;42.590;12.630;2022-12-29T07:51:59;10.50;99.90
21568;DHT22;10944;42.590;12.630;2022-12-29T07:54:24;10.60;99.90
21568;DHT22;10944;42.590;12.630;2022-12-29T07:56:50;10.60;99.90
21568;DHT22;10944;42.590;12.630;2022-12-29T07:59:16;10.70;99.90
21568;DHT22;10944;42.590;12.630;2022-12-29T08:01:42;10.80;99.90
21568;DHT22;10944;42.590;12.630;2022-12-29T08:04:08;10.90;99.90
21568;DHT22;10944;42.590;12.630;2022-12-29T08:06:34;10.90;99.90
21568;DHT22;10944;42.590;12.630;2022-12-29T08:08:59;10.90;99.90
21568;DHT22;10944;42.590;12.630;2022-12-29T08:11:26;10.90;99.90
21568;DHT22;10944;42.590;12.630;2022-12-29T08:13:52;10.90;99.90
21568;DHT22;10944;42.590;12.630;2022-12-29T08:16:17;11.10;99.90
21568;DHT22;10944;42.590;12.630;2022-12-29T08:18:43;11.20;99.90
21568;DHT22;10944;42.590;12.630;2022-12-29T08:21:10;11.30;99.90
21568;DHT22;10944;42.590;12.630;2022-12-29T08:23:35;11.40;99.90
21568;DHT22;10944;42.590;12.630;2022-12-29T08:26:03;11.40;99.90
21568;DHT22;10944;42.590;12.630;2022-12-29T08:28:30;11.50;99.90
21568;DHT22;10944;42.590;12.630;2022-12-29T08:31:00;11.50;99.90
21568;DHT22;10944;42.590;12.630;2022-12-29T08:33:27;11.50;99.90
21568;DHT22;10944;42.590;12.630;2022-12-29T08:35:59;11.50;99.90
21568;DHT22;10944;42.590;12.630;2022-12-29T08:38:25;11.60;99.90
21568;DHT22;10944;42.590;12.630;2022-12-29T08:40:51;11.70;99.90
21568;DHT22;10944;42.590;12.630;2022-12-29T08:43:54;11.90;99.90
21568;DHT22;10944;42.590;12.630;2022-12-29T08:46:19;12.10;99.90
21568;DHT22;10944;42.590;12.630;2022-12-29T08:48:45;12.20;99.90
21568;DHT22;10944;42.590;12.630;2022-12-29T08:51:12;12.10;99.90
21568;DHT22;10944;42.590;12.630;2022-12-29T08:53:38;12.10;99.90
21568;DHT22;10944;42.590;12.630;2022-12-29T08:56:04;12.10;99.90
21568;DHT22;10944;42.590;12.630;2022-12-29T08:58:30;12.00;99.90
21568;DHT22;10944;42.590;12.630;2022-12-29T09:00:57;12.00;99.90
21568;DHT22;10944;42.590;12.630;2022-12-29T09:03:24;12.00;99.90
21568;DHT22;10944;42.590;12.630;2022-12-29T09:05:51;12.00;99.90
21568;DHT22;10944;42.590;12.630;2022-12-29T09:08:17;12.10;99.90
21568;DHT22;10944;42.590;12.630;2022-12-29T09:10:44;12.10;99.90
21568;DHT22;10944;42.590;12.630;2022-12-29T09:13:11;12.20;99.90
21568;DHT22;10944;42.590;12.630;2022-12-29T09:15:37;12.30;99.90
21568;DHT22;10944;42.590;12.630;2022-12-29T09:18:03;12.50;99.90
21568;DHT22;10944;42.590;12.630;2022-12-29T09:20:28;12.70;99.90
21568;DHT22;10944;42.590;12.630;2022-12-29T09:22:54;12.70;99.90
21568;DHT22;10944;42.590;12.630;2022-12-29T09:25:20;12.80;99.90
21568;DHT22;10944;42.590;12.630;2022-12-29T09:27:49;12.80;99.90
21568;DHT22;10944;42.590;12.630;2022-12-29T09:30:15;12.80;99.90
21568;DHT22;10944;42.590;12.630;2022-12-29T09:32:41;13.00;99.90
21568;DHT22;10944;42.590;12.630;2022-12-29T09:35:07;13.10;99.90
21568;DHT22;10944;42.590;12.630;2022-12-29T09:37:32;13.20;99.90
21568;DHT22;10944;42.590;12.630;2022-12-29T09:39:58;13.30;99.90
21568;DHT22;10944;42.590;12.630;2022-12-29T09:42:45;13.30;99.90
21568;DHT22;10944;42.590;12.630;2022-12-29T09:45:21;13.40;99.90
21568;DHT22;10944;42.590;12.630;2022-12-29T09:47:48;13.60;99.90
21568;DHT22;10944;42.590;12.630;2022-12-29T09:55:42;13.90;99.90
21568;DHT22;10944;42.590;12.630;2022-12-29T09:58:54;13.90;99.90
21568;DHT22;10944;42.590;12.630;2022-12-29T10:01:04;13.90;99.90
21568;DHT22;10944;42.590;12.630;2022-12-29T10:06:09;13.90;99.90
21568;DHT22;10944;42.590;12.630;2022-12-29T10:09:15;14.00;99.90
21568;DHT22;10944;42.590;12.630;2022-12-29T10:14:47;14.10;99.90
21568;DHT22;10944;42.590;12.630;2022-12-29T10:25:30;13.60;99.90
21568;DHT22;10944;42.590;12.630;2022-12-29T10:28:00;13.70;99.90
21568;DHT22;10944;42.590;12.630;2022-12-29T10:30:26;13.80;99.90
21568;DHT22;10944;42.590;12.630;2022-12-29T10:32:56;13.90;99.90
21568;DHT22;10944;42.590;12.630;2022-12-29T10:35:25;13.90;99.90
21568;DHT22;10944;42.590;12.630;2022-12-29T10:38:15;14.00;99.90
21568;DHT22;10944;42.590;12.630;2022-12-29T10:41:08;14.00;99.90
21568;DHT22;10944;42.590;12.630;2022-12-29T10:43:44;14.00;99.90
21568;DHT22;10944;42.590;12.630;2022-12-29T10:46:30;14.00;99.90
21568;DHT22;10944;42.590;12.630;2022-12-29T10:48:58;14.10;99.90
21568;DHT22;10944;42.590;12.630;2022-12-29T10:51:37;14.10;99.90
21568;DHT22;10944;42.590;12.630;2022-12-29T10:54:11;14.10;99.90
21568;DHT22;10944;42.590;12.630;2022-12-29T10:56:42;14.20;99.90
21568;DHT22;10944;42.590;12.630;2022-12-29T10:59:29;14.30;99.90
21568;DHT22;10944;42.590;12.630;2022-12-29T11:07:21;14.60;99.90
21568;DHT22;10944;42.590;12.630;2022-12-29T11:09:48;14.80;99.90
21568;DHT22;10944;42.590;12.630;2022-12-29T11:12:32;14.90;99.90
21568;DHT22;10944;42.590;12.630;2022-12-29T11:17:57;15.00;99.90
21568;DHT22;10944;42.590;12.630;2022-12-29T11:20:36;15.00;99.90
21568;DHT22;10944;42.590;12.630;2022-12-29T11:23:25;14.80;99.90
21568;DHT22;10944;42.590;12.630;2022-12-29T11:28:40;14.80;99.90
21568;DHT22;10944;42.590;12.630;2022-12-29T11:31:07;14.80;99.90
21568;DHT22;10944;42.590;12.630;2022-12-29T11:33:35;14.90;99.90
21568;DHT22;10944;42.590;12.630;2022-12-29T11:36:17;14.90;99.90
21568;DHT22;10944;42.590;12.630;2022-12-29T11:38:52;14.90;99.90
21568;DHT22;10944;42.590;12.630;2022-12-29T11:41:24;14.90;99.90
21568;DHT22;10944;42.590;12.630;2022-12-29T11:43:52;14.80;99.90
21568;DHT22;10944;42.590;12.630;2022-12-29T11:46:22;14.80;99.90
21568;DHT22;10944;42.590;12.630;2022-12-29T11:48:49;14.90;99.90
21568;DHT22;10944;42.590;12.630;2022-12-29T11:51:23;14.90;99.90
21568;DHT22;10944;42.590;12.630;2022-12-29T11:53:53;15.20;99.90
21568;DHT22;10944;42.590;12.630;2022-12-29T11:56:32;15.40;99.90
21568;DHT22;10944;42.590;12.630;2022-12-29T11:58:58;15.40;99.90
21568;DHT22;10944;42.590;12.630;2022-12-29T12:01:44;15.40;99.90
21568;DHT22;10944;42.590;12.630;2022-12-29T12:04:23;15.60;99.90
21568;DHT22;10944;42.590;12.630;2022-12-29T12:07:17;15.70;99.90
21568;DHT22;10944;42.590;12.630;2022-12-29T12:12:37;15.30;99.90
21568;DHT22;10944;42.590;12.630;2022-12-29T12:15:05;15.10;99.90
21568;DHT22;10944;42.590;12.630;2022-12-29T12:17:37;15.00;99.90
21568;DHT22;10944;42.590;12.630;2022-12-29T12:25:24;14.80;99.90
21568;DHT22;10944;42.590;12.630;2022-12-29T12:27:57;14.80;99.90
21568;DHT22;10944;42.590;12.630;2022-12-29T12:30:28;14.80;99.90
21568;DHT22;10944;42.590;12.630;2022-12-29T12:44:25;15.10;99.90
21568;DHT22;10944;42.590;12.630;2022-12-29T12:50:02;15.00;99.90
21568;DHT22;10944;42.590;12.630;2022-12-29T12:58:43;15.00;99.90
21568;DHT22;10944;42.590;12.630;2022-12-29T13:04:19;15.00;99.90
21568;DHT22;10944;42.590;12.630;2022-12-29T13:18:02;15.30;99.90
21568;DHT22;10944;42.590;12.630;2022-12-29T13:20:52;15.40;99.90
21568;DHT22;10944;42.590;12.630;2022-12-29T13:26:18;15.70;99.90
21568;DHT22;10944;42.590;12.630;2022-12-29T13:36:51;15.10;99.90
21568;DHT22;10944;42.590;12.630;2022-12-29T13:39:30;14.90;99.90
21568;DHT22;10944;42.590;12.630;2022-12-29T13:41:58;14.80;99.90
21568;DHT22;10944;42.590;12.630;2022-12-29T13:45:18;14.80;99.90
21568;DHT22;10944;42.590;12.630;2022-12-29T13:47:55;14.90;99.90
21568;DHT22;10944;42.590;12.630;2022-12-29T13:50:26;15.10;99.90
21568;DHT22;10944;42.590;12.630;2022-12-29T14:04:13;14.90;99.90
21568;DHT22;10944;42.590;12.630;2022-12-29T14:06:39;14.70;99.90
21568;DHT22;10944;42.590;12.630;2022-12-29T14:12:37;14.60;99.90
21568;DHT22;10944;42.590;12.630;2022-12-29T14:15:23;14.50;99.90
21568;DHT22;10944;42.590;12.630;2022-12-29T14:18:12;14.40;99.90
21568;DHT22;10944;42.590;12.630;2022-12-29T14:20:46;14.30;99.90
21568;DHT22;10944;42.590;12.630;2022-12-29T14:23:25;14.40;99.90
21568;DHT22;10944;42.590;12.630;2022-12-29T14:28:28;14.60;99.90
21568;DHT22;10944;42.590;12.630;2022-12-29T14:30:59;14.50;99.90
21568;DHT22;10944;42.590;12.630;2022-12-29T14:33:27;14.40;99.90
21568;DHT22;10944;42.590;12.630;2022-12-29T14:35:54;14.40;99.90
21568;DHT22;10944;42.590;12.630;2022-12-29T14:38:23;14.30;99.90
21568;DHT22;10944;42.590;12.630;2022-12-29T14:40:49;14.20;99.90
21568;DHT22;10944;42.590;12.630;2022-12-29T14:43:25;14.10;99.90
21568;DHT22;10944;42.590;12.630;2022-12-29T14:45:58;14.10;99.90
21568;DHT22;10944;42.590;12.630;2022-12-29T14:48:35;14.00;99.90
21568;DHT22;10944;42.590;12.630;2022-12-29T14:51:02;13.90;99.90
21568;DHT22;10944;42.590;12.630;2022-12-29T14:53:48;13.90;99.90
21568;DHT22;10944;42.590;12.630;2022-12-29T14:56:18;13.90;99.90
21568;DHT22;10944;42.590;12.630;2022-12-29T14:59:01;13.90;99.90
21568;DHT22;10944;42.590;12.630;2022-12-29T15:01:42;13.70;99.90
21568;DHT22;10944;42.590;12.630;2022-12-29T15:04:25;13.70;99.90
21568;DHT22;10944;42.590;12.630;2022-12-29T15:06:53;13.70;99.90
21568;DHT22;10944;42.590;12.630;2022-12-29T15:09:41;13.60;99.90
21568;DHT22;10944;42.590;12.630;2022-12-29T15:12:38;13.50;99.90
21568;DHT22;10944;42.590;12.630;2022-12-29T15:15:20;13.40;99.90
21568;DHT22;10944;42.590;12.630;2022-12-29T15:17:46;13.30;99.90
21568;DHT22;10944;42.590;12.630;2022-12-29T15:20:28;13.20;99.90
21568;DHT22;10944;42.590;12.630;2022-12-29T15:23:09;13.10;99.90
21568;DHT22;10944;42.590;12.630;2022-12-29T15:25:36;13.00;99.90
21568;DHT22;10944;42.590;12.630;2022-12-29T15:28:04;12.90;99.90
21568;DHT22;10944;42.590;12.630;2022-12-29T15:30:30;12.80;99.90
21568;DHT22;10944;42.590;12.630;2022-12-29T15:32:56;12.70;99.90
21568;DHT22;10944;42.590;12.630;2022-12-29T15:37:53;12.40;99.90
21568;DHT22;10944;42.590;12.630;2022-12-29T15:40:30;12.40;99.90
21568;DHT22;10944;42.590;12.630;2022-12-29T15:45:50;12.10;99.90
21568;DHT22;10944;42.590;12.630;2022-12-29T15:48:39;12.10;99.90
21568;DHT22;10944;42.590;12.630;2022-12-29T15:51:33;12.00;99.90
21568;DHT22;10944;42.590;12.630;2022-12-29T15:54:00;11.90;99.90
21568;DHT22;10944;42.590;12.630;2022-12-29T15:56:29;11.80;99.90
21568;DHT22;10944;42.590;12.630;2022-12-29T15:58:56;11.80;99.90
21568;DHT22;10944;42.590;12.630;2022-12-29T16:01:32;11.70;99.90
21568;DHT22;10944;42.590;12.630;2022-12-29T16:04:00;11.60;99.90
21568;DHT22;10944;42.590;12.630;2022-12-29T16:09:07;11.60;99.90
21568;DHT22;10944;42.590;12.630;2022-12-29T16:11:45;11.50;99.90
21568;DHT22;10944;42.590;12.630;2022-12-29T16:14:21;11.50;99.90
21568;DHT22;10944;42.590;12.630;2022-12-29T16:16:49;11.40;99.90
21568;DHT22;10944;42.590;12.630;2022-12-29T16:19:28;11.30;99.90
21568;DHT22;10944;42.590;12.630;2022-12-29T16:21:55;11.20;99.90
21568;DHT22;10944;42.590;12.630;2022-12-29T16:24:25;11.20;99.90
21568;DHT22;10944;42.590;12.630;2022-12-29T16:27:02;11.10;99.90
21568;DHT22;10944;42.590;12.630;2022-12-29T16:29:32;11.10;99.90
21568;DHT22;10944;42.590;12.630;2022-12-29T16:31:59;11.00;99.90
21568;DHT22;10944;42.590;12.630;2022-12-29T16:34:28;11.00;99.90
21568;DHT22;10944;42.590;12.630;2022-12-29T16:37:03;10.90;99.90
21568;DHT22;10944;42.590;12.630;2022-12-29T16:39:37;11.00;99.90
21568;DHT22;10944;42.590;12.630;2022-12-29T16:48:06;10.90;99.90
21568;DHT22;10944;42.590;12.630;2022-12-29T16:50:38;10.90;99.90
21568;DHT22;10944;42.590;12.630;2022-12-29T16:53:07;10.90;99.90
21568;DHT22;10944;42.590;12.630;2022-12-29T16:55:46;10.80;99.90
21568;DHT22;10944;42.590;12.630;2022-12-29T16:58:26;10.70;99.90
21568;DHT22;10944;42.590;12.630;2022-12-29T17:01:03;10.70;99.90
21568;DHT22;10944;42.590;12.630;2022-12-29T17:03:37;10.60;99.90
21568;DHT22;10944;42.590;12.630;2022-12-29T17:06:04;10.60;99.90
21568;DHT22;10944;42.590;12.630;2022-12-29T17:08:40;10.70;99.90
21568;DHT22;10944;42.590;12.630;2022-12-29T17:14:35;10.70;99.90
21568;DHT22;10944;42.590;12.630;2022-12-29T17:17:04;10.60;99.90
21568;DHT22;10944;42.590;12.630;2022-12-29T17:19:35;10.60;99.90
21568;DHT22;10944;42.590;12.630;2022-12-29T17:22:08;10.60;99.90
21568;DHT22;10944;42.590;12.630;2022-12-29T17:24:34;10.60;99.90
21568;DHT22;10944;42.590;12.630;2022-12-29T17:27:01;10.50;99.90
21568;DHT22;10944;42.590;12.630;2022-12-29T17:29:33;10.50;99.90
21568;DHT22;10944;42.590;12.630;2022-12-29T17:32:01;10.40;99.90
21568;DHT22;10944;42.590;12.630;2022-12-29T17:34:28;10.40;99.90
21568;DHT22;10944;42.590;12.630;2022-12-29T17:36:54;10.40;99.90
21568;DHT22;10944;42.590;12.630;2022-12-29T17:39:20;10.40;99.90
21568;DHT22;10944;42.590;12.630;2022-12-29T17:41:45;10.40;99.90
21568;DHT22;10944;42.590;12.630;2022-12-29T17:44:19;10.40;99.90
21568;DHT22;10944;42.590;12.630;2022-12-29T17:46:46;10.40;99.90
21568;DHT22;10944;42.590;12.630;2022-12-29T17:49:14;10.50;99.90
21568;DHT22;10944;42.590;12.630;2022-12-29T17:51:41;10.40;99.90
21568;DHT22;10944;42.590;12.630;2022-12-29T17:54:24;10.40;99.90
21568;DHT22;10944;42.590;12.630;2022-12-29T17:56:50;10.40;99.90
21568;DHT22;10944;42.590;12.630;2022-12-29T17:59:17;10.40;99.90
21568;DHT22;10944;42.590;12.630;2022-12-29T18:01:44;10.40;99.90
21568;DHT22;10944;42.590;12.630;2022-12-29T18:04:16;10.40;99.90
21568;DHT22;10944;42.590;12.630;2022-12-29T18:06:43;10.40;99.90
21568;DHT22;10944;42.590;12.630;2022-12-29T18:09:09;10.40;99.90
21568;DHT22;10944;42.590;12.630;2022-12-29T18:11:42;10.50;99.90
21568;DHT22;10944;42.590;12.630;2022-12-29T18:14:15;10.60;99.90
21568;DHT22;10944;42.590;12.630;2022-12-29T18:16:41;10.50;99.90